Flight Track Log - Related Links

Times and Time Zones

All times are in EDT time to prevent confusion due to time zone crossing. See the EJA727 flight status page for this flight to view local times or setup timezone preferences in your user account.

Time Position Orientation Groundspeed Altitude Reporting Facility
EDT Latitude Longitude Course Direction KTS MPH feet Rate Location/Type
Sat 06:20:08 PM 35.5478 -97.6458 15° North 174 200 2,400  Level Fort Worth Center
Sat 06:20:57 PM 35.5853 -97.6331 15° North 197 227 6,200 4,294 Climbing Fort Worth Center
Sat 06:21:57 PM 35.6189 -97.5617 60° Northeast 269 310 10,200 3,280 Climbing Fort Worth Center
Sat 06:23:38 PM 35.6767 -97.3958 67° East 331 381 15,000 2,630 Climbing Kansas City Center
Sat 06:24:39 PM 35.7192 -97.2664 68° East 394 453 17,300 2,585 Climbing Kansas City Center
Sat 06:25:41 PM 35.7631 -97.1344 68° East 410 472 20,300 2,829 Climbing Kansas City Center
Sat 06:26:42 PM 35.8061 -97.0011 68° East 416 479 23,100 2,293 Climbing Kansas City Center
Sat 06:27:44 PM 35.8522 -96.8622 68° East 432 497 25,000 1,805 Climbing Kansas City Center
Sat 06:28:45 PM 35.8992 -96.7197 68° East 445 512 26,800 1,561 Climbing Kansas City Center
Sat 06:29:47 PM 35.9456 -96.5719 69° East 457 526 28,200 1,561 Climbing Kansas City Center
Sat 06:30:48 PM 36.0014 -96.4008 68° East 462 532 30,000 1,377 Climbing Kansas City Center
Sat 06:31:49 PM 36.0486 -96.2503 69° East 467 537 31,000 1,024 Climbing Kansas City Center
Sat 06:32:51 PM 36.0978 -96.0958 68° East 478 550 32,100 1,024 Climbing Kansas City Center
Sat 06:33:52 PM 36.1469 -95.9411 68° East 481 554 33,100 976 Climbing Kansas City Center
Sat 06:34:54 PM 36.1950 -95.7900 68° East 476 548 34,100 1,024 Climbing Kansas City Center
Sat 06:35:55 PM 36.2417 -95.6369 69° East 464 534 35,200 1,512 Climbing Kansas City Center
Sat 06:36:57 PM 36.2844 -95.4933 70° East 451 519 37,200 1,659 Climbing Kansas City Center
Sat 06:37:58 PM 36.3256 -95.3503 70° East 445 512 38,600 878 Climbing Kansas City Center
Sat 06:39:00 PM 36.3756 -95.1778 70° East 444 511 39,000 195 Climbing Kansas City Center
Sat 06:40:01 PM 36.4139 -95.0425 71° East 454 522 39,000  Level Kansas City Center
Sat 06:41:03 PM 36.4558 -94.8958 70° East 454 522 39,000  Level Kansas City Center
Sat 06:42:04 PM 36.4969 -94.7506 71° East 448 516 39,000  Level Kansas City Center
Sat 06:43:06 PM 36.5456 -94.5761 71° East 445 512 39,000  Level Kansas City Center
Sat 06:44:07 PM 36.5864 -94.4314 71° East 444 511 39,000  Level Kansas City Center
Sat 06:45:09 PM 36.6286 -94.2858 70° East 445 512 39,000  Level Kansas City Center
Sat 06:46:10 PM 36.6683 -94.1394 71° East 446 513 39,000  Level Kansas City Center
Sat 06:47:11 PM 36.7100 -93.9931 70° East 446 513 39,000  Level Kansas City Center
Sat 06:48:13 PM 36.7469 -93.8467 72° East 445 512 39,000  Level Kansas City Center
Sat 06:49:14 PM 36.7772 -93.6947 76° East 447 514 39,000  Level Kansas City Center
Sat 06:50:16 PM 36.8103 -93.5456 74° East 447 514 39,000  Level Kansas City Center
Sat 06:51:17 PM 36.8419 -93.4017 75° East 442 509 39,000  Level Kansas City Center
Sat 06:52:19 PM 36.8772 -93.2433 74° East 440 506 39,000  Level Kansas City Center
Sat 06:53:20 PM 36.9097 -93.0964 74° East 440 506 39,000  Level Kansas City Center
Sat 06:54:22 PM 36.9417 -92.9486 75° East 440 506 39,000  Level Kansas City Center
Sat 06:55:23 PM 36.9725 -92.8008 75° East 439 505 39,000  Level Kansas City Center
Sat 06:56:25 PM 37.0108 -92.6233 75° East 440 506 39,000  Level Kansas City Center
Sat 06:57:26 PM 37.0414 -92.4753 75° East 441 507 39,000  Level Kansas City Center
Sat 06:58:28 PM 37.0733 -92.3278 75° East 441 507 39,000  Level Kansas City Center
Sat 06:59:29 PM 37.1036 -92.1772 76° East 444 511 39,000  Level Kansas City Center
Sat 07:00:31 PM 37.1350 -92.0297 75° East 442 509 39,000  Level Kansas City Center
Sat 07:01:32 PM 37.1658 -91.8808 75° East 441 507 39,000  Level Kansas City Center
Sat 07:02:34 PM 37.1969 -91.7308 75° East 443 510 39,000  Level Kansas City Center
Sat 07:03:35 PM 37.2269 -91.5811 76° East 443 510 39,000  Level Kansas City Center
Sat 07:04:36 PM 37.2636 -91.4017 76° East 443 510 39,000  Level Kansas City Center
Sat 07:05:38 PM 37.2925 -91.2508 76° East 444 511 39,000  Level Kansas City Center
Sat 07:06:39 PM 37.3228 -91.1017 76° East 441 507 39,000  Level Kansas City Center
Sat 07:07:41 PM 37.3533 -90.9483 76° East 448 516 39,000  Level Kansas City Center
Sat 07:08:42 PM 37.3822 -90.7969 76° East 447 514 39,000  Level Kansas City Center
Sat 07:09:44 PM 37.4131 -90.6361 76° East 451 519 39,000 -683 Level Kansas City Center
Sat 07:10:45 PM 37.4422 -90.4844 76° East 450 518 37,600 -1,415 Descending Kansas City Center
Sat 07:11:47 PM 37.4722 -90.3264 77° East 459 528 36,100 -1,317 Descending Kansas City Center
Sat 07:12:48 PM 37.5019 -90.1697 77° East 463 533 34,900 -1,377 Descending Kansas City Center
Sat 07:13:49 PM 37.5344 -89.9978 77° East 457 526 33,300 -927 Descending Kansas City Center
Sat 07:14:51 PM 37.5631 -89.8489 76° East 446 513 33,000 -146 Descending Kansas City Center
Sat 07:15:52 PM 37.5897 -89.6986 77° East 429 494 33,000  Level Kansas City Center
Sat 07:16:54 PM 37.6153 -89.5603 77° East 416 479 33,000  Level Kansas City Center
Sat 07:17:55 PM 37.6397 -89.4269 77° East 402 463 33,000  Level Kansas City Center
Sat 07:18:57 PM 37.6633 -89.2969 77° East 396 456 33,000  Level Kansas City Center
Sat 07:19:58 PM 37.6872 -89.1611 77° East 397 457 33,000  Level Kansas City Center
Sat 07:20:59 PM 37.7108 -89.0283 77° East 391 450 33,000  Level Kansas City Center
Sat 07:22:01 PM 37.7344 -88.8958 77° East 387 445 33,000  Level Kansas City Center
Sat 07:23:02 PM 37.7619 -88.7381 78° East 385 443 33,000 -488 Level Kansas City Center
Sat 07:24:04 PM 37.7833 -88.6139 78° East 383 441 32,000 -1,415 Descending Kansas City Center
Sat 07:25:05 PM 37.8053 -88.4869 78° East 375 432 30,100 -1,475 Descending Kansas City Center
Sat 07:26:06 PM 37.8264 -88.3617 78° East 365 420 29,000 -953 Descending Kansas City Center
Sat 07:26:52 PM 37.8450 -88.2619 77° East 366 421 28,400 -1,234 Descending Indianapolis Center
Sat 07:27:53 PM 37.8664 -88.1328 78° East 373 429 26,800 -1,328 Descending Indianapolis Center
Sat 07:28:54 PM 37.8872 -88.0039 78° East 373 429 25,700 -1,013 Descending Indianapolis Center
Sat 07:29:10 PM 37.8917 -87.9769 78° East 374 430 25,500 -1,180 Descending Kansas City Center
Sat 07:29:55 PM 37.9100 -87.8731 77° East 379 436 24,500 -1,234 Descending Indianapolis Center
Sat 07:30:57 PM 37.9339 -87.7453 77° East 375 432 23,300 -1,171 Descending Indianapolis Center
Sat 07:31:58 PM 37.9756 -87.6183 67° East 387 445 22,100 -1,180 Descending Indianapolis Center
Sat 07:32:59 PM 38.0150 -87.4944 68° East 382 440 20,900 -1,230 Descending Indianapolis Center
Sat 07:34:00 PM 38.0533 -87.3708 68° East 377 434 19,600 -1,525 Descending Indianapolis Center
Sat 07:35:01 PM 38.1017 -87.2211 68° East 382 440 17,800 -1,574 Descending Indianapolis Center
Sat 07:36:02 PM 38.1383 -87.1044 68° East 363 418 16,400 -1,426 Descending Indianapolis Center
Sat 07:37:03 PM 38.1739 -86.9903 68° East 354 407 14,900 -1,426 Descending Indianapolis Center
Sat 07:38:04 PM 38.2100 -86.8753 68° East 355 409 13,500 -1,171 Descending Indianapolis Center
Sat 07:39:06 PM 38.2453 -86.7622 68° East 349 402 12,500 -976 Descending Indianapolis Center
Sat 07:40:07 PM 38.2467 -86.6469 89° East 328 377 11,500 -934 Descending Indianapolis Center
Sat 07:41:08 PM 38.2336 -86.5372 99° East 317 365 10,600 -1,230 Descending Indianapolis Center
Sat 07:42:09 PM 38.2214 -86.4492 100° East 257 296 9,000 -1,525 Descending Indianapolis Center
Sat 07:43:10 PM 38.2097 -86.3633 100° East 246 283 7,500 -1,377 Descending Indianapolis Center
Sat 07:44:11 PM 38.1978 -86.2767 100° East 248 285 6,200 -738 Descending Indianapolis Center
Sat 07:45:12 PM 38.1842 -86.1739 100° East 246 283 6,000 -98 Descending Indianapolis Center
Sat 07:46:13 PM 38.1736 -86.0872 99° East 247 284 6,000 -537 Level Indianapolis Center
Sat 07:47:15 PM 38.1906 -86.0108 74° East 258 297 4,900 -976 Descending Indianapolis Center
Sat 07:48:16 PM 38.2478 -85.9475 41° Northeast 269 310 4,000 -443 Descending Indianapolis Center
Sat 07:49:17 PM 38.3117 -85.9167 21° North 271 312 4,000 -295 Level Indianapolis Center
Sat 07:50:18 PM 38.3792 -85.9003 11° North 270 311 3,400 -492 Descending Indianapolis Center
Sat 07:51:19 PM 38.3953 -85.8158 76° East 253 291 3,000 -197 Descending Indianapolis Center
Sat 07:52:20 PM 38.3433 -85.7817 153° Southeast 228 262 3,000 -98 Level Indianapolis Center
Sat 07:53:22 PM 38.2961 -85.7683 168° South 201 231 2,800 -390 Descending Indianapolis Center
Sat 07:54:23 PM 38.2639 -85.7578 166° South 166 191 2,200 -393 Descending Indianapolis Center
Sat 07:55:24 PM 38.2267 -85.7500 171° South 160 184 2,000 -197 Descending Indianapolis Center

Login

Don't have an account? Register now (free) for customized features, flight alerts, and more!